Time;durP1;ratioP1;P1;durP2;ratioP2;P2;SDS_P1;SDS_P2;PMS_P1;PMS_P2;Temp;Humidity;BMP_temperature;BMP_pressure;BME280_temperature;BME280_humidity;BME280_pressure;Samples;Min_cycle;Max_cycle;Signal;HPM_P1;HPM_P2
2023/01/31 00:00:43;;;;;;;10.93;2.33;;;;;;;1.99;100.00;102573.09;5114485;28;20112;-77
2023/01/31 00:03:09;;;;;;;10.48;2.45;;;;;;;2.03;100.00;102577.31;5114966;28;20085;-77
2023/01/31 00:05:35;;;;;;;23.10;3.17;;;;;;;2.02;100.00;102579.09;5115875;28;20019;-76
2023/01/31 00:08:00;;;;;;;18.08;3.08;;;;;;;2.02;100.00;102575.63;5115930;28;20024;-78
2023/01/31 00:10:26;;;;;;;19.33;2.92;;;;;;;2.03;100.00;102577.31;5115634;28;20439;-78
2023/01/31 00:12:51;;;;;;;21.13;3.53;;;;;;;1.98;100.00;102566.94;5115803;28;20032;-77
2023/01/31 00:15:17;;;;;;;22.30;2.78;;;;;;;1.94;100.00;102570.56;5115746;28;20035;-78
2023/01/31 00:17:43;;;;;;;26.23;4.13;;;;;;;1.85;100.00;102553.31;5116235;28;20028;-78
2023/01/31 00:20:09;;;;;;;13.57;2.72;;;;;;;1.76;100.00;102551.78;5115912;28;20076;-77
2023/01/31 00:22:34;;;;;;;17.83;2.83;;;;;;;1.70;100.00;102556.31;5115773;28;20032;-77
2023/01/31 00:25:00;;;;;;;15.52;2.75;;;;;;;1.67;100.00;102545.91;5115381;28;20042;-78
2023/01/31 00:27:25;;;;;;;24.65;3.28;;;;;;;1.63;100.00;102550.38;5115419;28;20038;-78
2023/01/31 00:29:50;;;;;;;19.58;3.42;;;;;;;1.58;100.00;102537.38;5115253;28;20520;-77
2023/01/31 00:32:16;;;;;;;23.77;3.30;;;;;;;1.54;100.00;102535.72;5116113;28;20040;-77
2023/01/31 00:34:41;;;;;;;24.02;3.70;;;;;;;1.50;100.00;102522.72;5097090;28;20031;-77
2023/01/31 00:37:06;;;;;;;27.15;3.15;;;;;;;1.55;100.00;102529.59;5114189;28;20421;-77
2023/01/31 00:39:32;;;;;;;30.33;3.40;;;;;;;1.61;100.00;102523.28;5114909;28;20035;-77
2023/01/31 00:41:57;;;;;;;23.65;4.70;;;;;;;1.65;100.00;102517.06;5115138;28;20081;-77
2023/01/31 00:44:22;;;;;;;23.35;3.38;;;;;;;1.64;100.00;102512.72;5115196;28;20027;-77
2023/01/31 00:46:48;;;;;;;24.77;3.33;;;;;;;1.64;100.00;102504.84;5115522;28;20395;-76
2023/01/31 00:49:13;;;;;;;25.30;3.63;;;;;;;1.65;100.00;102497.84;5115102;28;20039;-77
2023/01/31 00:51:38;;;;;;;34.10;4.57;;;;;;;1.62;100.00;102490.91;5115494;28;20027;-77
2023/01/31 00:54:04;;;;;;;27.05;3.42;;;;;;;1.62;100.00;102488.28;5114677;28;20162;-77
2023/01/31 00:56:29;;;;;;;21.10;3.60;;;;;;;1.63;100.00;102487.41;5114840;28;20043;-77
2023/01/31 00:58:54;;;;;;;26.95;3.70;;;;;;;1.63;100.00;102489.13;5114969;28;20077;-76
2023/01/31 01:01:26;;;;;;;31.48;4.28;;;;;;;1.64;100.00;102486.47;5114997;28;20165;-76
2023/01/31 01:03:51;;;;;;;;;;;;;;;1.63;100.00;102484.78;5115271;28;20501;-77
2023/01/31 01:06:17;;;;;;;22.08;3.85;;;;;;;1.66;100.00;102476.81;5114694;28;19911;-77
2023/01/31 01:08:43;;;;;;;17.88;2.90;;;;;;;1.68;100.00;102479.41;5114380;28;20176;-77
2023/01/31 01:11:14;;;;;;;23.73;3.90;;;;;;;1.61;100.00;102476.06;5114647;28;20536;-77
2023/01/31 01:13:40;;;;;;;17.58;3.60;;;;;;;1.56;100.00;102476.19;5114640;28;20106;-77
2023/01/31 01:16:07;;;;;;;19.75;3.03;;;;;;;1.51;100.00;102466.75;5114629;28;20108;-77
2023/01/31 01:18:34;;;;;;;28.55;3.95;;;;;;;1.43;100.00;102460.81;5114467;28;20027;-78
2023/01/31 01:21:13;;;;;;;23.70;3.75;;;;;;;1.37;100.00;102464.47;5114303;28;20126;-77
2023/01/31 01:23:41;;;;;;;24.02;3.22;;;;;;;1.31;100.00;102462.00;5114421;28;20027;-77
2023/01/31 01:26:16;;;;;;;18.80;3.50;;;;;;;1.25;100.00;102465.63;5114300;28;20035;-78
2023/01/31 01:28:42;;;;;;;26.33;3.97;;;;;;;1.23;100.00;102465.66;5113954;28;20452;-78
2023/01/31 01:31:10;;;;;;;26.23;4.18;;;;;;;1.35;100.00;102471.53;5113502;28;20066;-76
2023/01/31 01:33:36;;;;;;;23.95;3.80;;;;;;;1.49;100.00;102465.91;5114056;28;20027;-76
2023/01/31 01:36:03;;;;;;;28.88;4.30;;;;;;;1.57;100.00;102472.69;5113908;28;20042;-76
2023/01/31 01:38:28;;;;;;;34.78;5.00;;;;;;;1.69;100.00;102481.13;5113934;28;20054;-76
2023/01/31 01:40:53;;;;;;;18.88;3.63;;;;;;;1.76;100.00;102473.03;5113766;28;20031;-77
2023/01/31 01:43:19;;;;;;;29.23;4.07;;;;;;;1.88;100.00;102465.72;5114174;28;20511;-76
2023/01/31 01:45:44;;;;;;;32.63;5.38;;;;;;;1.99;100.00;102478.56;5113696;28;20100;-78
2023/01/31 01:48:16;;;;;;;31.67;4.32;;;;;;;2.02;100.00;102478.47;5114071;28;20027;-78
2023/01/31 01:50:47;;;;;;;32.38;4.88;;;;;;;2.06;100.00;102480.97;5113961;28;20028;-77
2023/01/31 01:53:19;;;;;;;24.15;4.00;;;;;;;2.15;100.00;102481.59;5114599;28;20031;-77
2023/01/31 01:55:54;;;;;;;30.35;4.82;;;;;;;2.20;100.00;102479.72;5114791;28;20038;-77
2023/01/31 01:58:25;;;;;;;26.70;4.18;;;;;;;2.29;100.00;102482.06;5114117;28;20062;-76
2023/01/31 02:00:52;;;;;;;32.38;5.70;;;;;;;2.44;100.00;102476.34;5112598;28;20032;-77
2023/01/31 02:03:17;;;;;;;35.33;5.30;;;;;;;2.55;100.00;102483.88;5112643;28;20034;-76
2023/01/31 02:05:52;;;;;;;33.58;5.85;;;;;;;2.64;100.00;102483.63;5113873;28;20035;-77
2023/01/31 02:08:22;;;;;;;24.95;4.25;;;;;;;2.71;100.00;102483.44;5114091;28;20096;-77
2023/01/31 02:11:10;;;;;;;24.27;4.60;;;;;;;2.72;100.00;102480.75;5114322;28;20024;-77
2023/01/31 02:13:40;;;;;;;23.75;4.45;;;;;;;2.68;100.00;102488.78;5105592;28;20480;-77
2023/01/31 02:16:05;;;;;;;30.05;4.78;;;;;;;2.59;100.00;102482.03;5114157;28;20030;-78
2023/01/31 02:18:31;;;;;;;25.95;4.85;;;;;;;2.52;100.00;102483.13;5112210;28;20388;-77
2023/01/31 02:21:21;;;;;;;38.38;5.07;;;;;;;2.44;100.00;102481.59;5113261;28;20088;-78
2023/01/31 02:24:11;;;;;;;22.13;4.03;;;;;;;2.33;100.00;102478.44;5113823;28;20506;-78
2023/01/31 02:26:59;;;;;;;21.38;4.45;;;;;;;2.28;100.00;102481.22;5113393;28;20034;-77
2023/01/31 02:29:52;;;;;;;31.55;5.38;;;;;;;2.27;100.00;102478.63;5113185;28;20031;-78
2023/01/31 02:32:35;;;;;;;32.50;5.00;;;;;;;2.37;100.00;102472.16;5113767;28;20081;-77
2023/01/31 02:35:18;;;;;;;30.77;6.00;;;;;;;2.57;100.00;102471.59;5112201;28;20073;-77
2023/01/31 02:38:07;;;;;;;31.42;6.22;;;;;;;2.92;100.00;102464.34;5115723;28;20031;-78
2023/01/31 02:40:40;;;;;;;32.45;5.47;;;;;;;3.12;100.00;102463.69;5116353;28;20028;-78
2023/01/31 02:44:58;;;;;;;34.92;6.43;;;;;;;3.35;100.00;102454.16;5118234;28;20114;-78
2023/01/31 02:46:38;;;;;;;32.55;5.93;;;;;;;3.53;100.00;102457.94;5117540;28;20052;-77
2023/01/31 02:49:33;;;;;;;26.50;5.53;;;;;;;3.64;100.00;102447.00;5117308;28;20114;-77
2023/01/31 02:52:16;;;;;;;31.83;5.38;;;;;;;3.78;100.00;102451.81;5118061;28;20444;-77
2023/01/31 02:58:16;;;;;;;35.25;5.50;;;;;;;3.82;100.00;102450.75;5070081;28;20031;-77
2023/01/31 03:00:44;;;;;;;26.70;4.63;;;;;;;3.81;100.00;102447.28;5117061;28;20038;-77
2023/01/31 03:03:20;;;;;;;35.03;5.63;;;;;;;3.85;100.00;102448.88;5117141;28;20107;-77
2023/01/31 03:06:28;;;;;;;29.05;5.80;;;;;;;3.84;100.00;102441.88;5116498;28;20465;-77
2023/01/31 03:09:06;;;;;;;33.58;5.30;;;;;;;3.88;100.00;102440.88;5090375;28;20089;-77
2023/01/31 03:11:54;;;;;;;19.23;4.50;;;;;;;3.91;100.00;102433.75;5117539;28;20114;-77
2023/01/31 03:14:41;;;;;;;31.90;5.38;;;;;;;3.87;100.00;102428.63;5117028;28;20068;-78
2023/01/31 03:17:31;;;;;;;27.35;5.93;;;;;;;3.87;100.00;102440.94;5116657;28;20047;-78
2023/01/31 03:20:21;;;;;;;32.13;5.85;;;;;;;3.88;100.00;102443.50;5117049;28;20187;-77
2023/01/31 03:22:55;;;;;;;27.40;5.25;;;;;;;3.95;100.00;102440.63;5117646;28;20035;-77
2023/01/31 03:25:24;;;;;;;30.20;5.18;;;;;;;3.97;100.00;102442.31;5117247;28;20031;-77
2023/01/31 03:27:55;;;;;;;33.53;5.50;;;;;;;3.92;100.00;102441.59;5117395;28;20087;-77
2023/01/31 03:30:38;;;;;;;32.08;5.78;;;;;;;3.87;100.00;102428.63;5116694;28;20042;-78
2023/01/31 03:33:18;;;;;;;35.67;5.28;;;;;;;3.89;100.00;102428.56;5117799;28;20034;-76
2023/01/31 03:35:50;;;;;;;24.50;4.88;;;;;;;3.93;100.00;102424.03;5117755;28;20107;-77
2023/01/31 03:38:29;;;;;;;27.08;5.25;;;;;;;3.87;100.00;102423.34;5117317;28;20028;-77
2023/01/31 03:41:32;;;;;;;28.42;5.03;;;;;;;3.85;100.00;102416.41;5115182;28;20054;-77
2023/01/31 03:44:05;;;;;;;28.52;5.38;;;;;;;3.93;100.00;102402.97;5102637;28;20043;-76
2023/01/31 03:46:39;;;;;;;37.90;5.50;;;;;;;3.92;100.00;102402.09;5115807;28;20134;-76
2023/01/31 03:49:10;;;;;;;27.48;5.18;;;;;;;3.94;100.00;102405.56;5114676;28;20032;-76
2023/01/31 03:51:43;;;;;;;30.02;4.25;;;;;;;3.96;100.00;102413.41;5115308;28;20023;-77
2023/01/31 03:54:15;;;;;;;29.92;5.03;;;;;;;4.06;100.00;102422.63;5115021;28;20052;-76
2023/01/31 03:56:55;;;;;;;26.95;5.50;;;;;;;4.18;100.00;102419.56;5115482;28;20174;-77
2023/01/31 03:59:28;;;;;;;24.02;4.40;;;;;;;4.28;100.00;102414.78;5115433;28;20375;-77
2023/01/31 04:01:56;;;;;;;27.73;5.57;;;;;;;4.35;100.00;102413.63;5114877;28;20516;-76
2023/01/31 04:04:31;;;;;;;29.00;3.85;;;;;;;4.41;100.00;102407.25;5115082;28;20038;-77
2023/01/31 04:06:59;;;;;;;21.48;4.40;;;;;;;4.48;100.00;102394.69;5115092;28;20036;-77
2023/01/31 04:09:25;;;;;;;30.83;4.65;;;;;;;4.51;100.00;102399.81;5113512;28;20039;-77
2023/01/31 04:11:50;;;;;;;28.30;4.88;;;;;;;4.55;100.00;102398.78;5114898;28;20024;-77
2023/01/31 04:14:17;;;;;;;25.27;4.25;;;;;;;4.59;100.00;102395.13;5114736;28;20040;-77
2023/01/31 04:16:42;;;;;;;20.20;3.63;;;;;;;4.59;100.00;102392.47;5114741;28;20032;-76
2023/01/31 04:19:07;;;;;;;22.33;3.65;;;;;;;4.61;100.00;102393.28;5115111;28;20113;-77
2023/01/31 04:21:33;;;;;;;23.85;3.17;;;;;;;4.59;100.00;102392.47;5113239;28;20031;-78
2023/01/31 04:23:58;;;;;;;27.42;4.30;;;;;;;4.59;100.00;102395.97;5114194;28;20028;-76
2023/01/31 04:26:23;;;;;;;27.65;4.93;;;;;;;4.56;100.00;102398.72;5115033;28;20035;-76
2023/01/31 04:28:50;;;;;;;28.05;3.88;;;;;;;4.56;100.00;102393.47;5113774;28;20038;-78
2023/01/31 04:31:16;;;;;;;29.95;3.58;;;;;;;4.58;100.00;102378.47;5114543;28;20031;-77
2023/01/31 04:33:41;;;;;;;21.70;3.58;;;;;;;4.59;100.00;102368.75;5114384;28;20073;-77
2023/01/31 04:36:07;;;;;;;23.90;5.07;;;;;;;4.62;100.00;102367.78;5113956;28;20034;-77
2023/01/31 04:38:32;;;;;;;24.70;3.15;;;;;;;4.62;100.00;102360.72;5114418;28;20384;-77
2023/01/31 04:40:58;;;;;;;24.33;3.22;;;;;;;4.63;100.00;102361.56;5114267;28;20133;-78
2023/01/31 04:43:24;;;;;;;20.45;4.15;;;;;;;4.62;100.00;102362.50;5115095;28;20028;-78
2023/01/31 04:45:49;;;;;;;17.58;2.92;;;;;;;4.65;100.00;102360.59;5071643;27;1220701;-77
2023/01/31 04:48:15;;;;;;;14.63;2.92;;;;;;;4.67;100.00;102366.69;5115134;28;20043;-78
2023/01/31 04:50:40;;;;;;;19.35;3.28;;;;;;;4.72;100.00;102367.34;5114791;28;20115;-78
2023/01/31 04:53:07;;;;;;;23.25;4.35;;;;;;;4.73;100.00;102362.91;5114653;28;20103;-78
2023/01/31 04:55:33;;;;;;;20.80;3.28;;;;;;;4.74;100.00;102352.28;5115239;28;20034;-77
2023/01/31 04:57:58;;;;;;;23.92;3.50;;;;;;;4.77;100.00;102343.41;5115049;28;20044;-76
2023/01/31 05:00:24;;;;;;;19.25;3.80;;;;;;;4.78;100.00;102339.84;5113698;28;20038;-79
2023/01/31 05:02:49;;;;;;;25.10;3.83;;;;;;;4.80;100.00;102338.00;5114696;28;20023;-78
2023/01/31 05:05:15;;;;;;;34.53;4.15;;;;;;;4.78;100.00;102326.66;5114725;28;20452;-78
2023/01/31 05:07:41;;;;;;;24.08;3.00;;;;;;;4.81;100.00;102330.94;5115089;28;20035;-77
2023/01/31 05:10:07;;;;;;;26.52;3.78;;;;;;;4.81;100.00;102323.03;5114615;28;20050;-77
2023/01/31 05:12:33;;;;;;;23.33;2.85;;;;;;;4.82;100.00;102330.03;5114780;28;20092;-77
2023/01/31 05:14:58;;;;;;;16.85;3.10;;;;;;;4.83;100.00;102329.94;5114726;28;20460;-77
2023/01/31 05:17:25;;;;;;;20.75;3.10;;;;;;;4.88;100.00;102333.28;5113235;28;20067;-76
2023/01/31 05:19:51;;;;;;;25.10;3.10;;;;;;;4.89;100.00;102337.59;5114232;28;20039;-78
2023/01/31 05:22:16;;;;;;;17.33;2.67;;;;;;;4.89;100.00;102345.50;5112787;28;20032;-76
2023/01/31 05:24:42;;;;;;;18.58;3.90;;;;;;;4.92;100.00;102337.47;5114347;28;20114;-77
2023/01/31 05:27:08;;;;;;;28.77;3.40;;;;;;;4.92;100.00;102331.34;5114297;28;20027;-76
2023/01/31 05:29:34;;;;;;;14.20;2.88;;;;;;;4.97;100.00;102332.03;5113914;28;20032;-77
2023/01/31 05:32:00;;;;;;;23.55;3.38;;;;;;;5.01;100.00;102330.09;5114214;28;20028;-77
2023/01/31 05:34:29;;;;;;;20.35;4.03;;;;;;;5.01;100.00;102330.94;5114204;28;20050;-78
2023/01/31 05:36:55;;;;;;;22.35;3.80;;;;;;;5.03;100.00;102336.16;5114312;28;20036;-77
2023/01/31 05:39:21;;;;;;;24.50;4.22;;;;;;;5.03;100.00;102336.16;5114208;28;20360;-76
2023/01/31 05:41:46;;;;;;;21.38;2.92;;;;;;;5.04;100.00;102345.78;5114265;28;20527;-76
2023/01/31 05:44:13;;;;;;;14.77;2.80;;;;;;;5.03;100.00;102349.34;5113977;28;20118;-76
2023/01/31 05:46:38;;;;;;;24.10;4.85;;;;;;;5.05;100.00;102350.16;5113500;28;20438;-76
2023/01/31 05:49:04;;;;;;;18.55;3.20;;;;;;;5.07;100.00;102345.66;5114086;28;20044;-77
2023/01/31 05:51:29;;;;;;;20.85;4.43;;;;;;;5.05;100.00;102337.81;5114153;28;20032;-77
2023/01/31 05:53:55;;;;;;;23.38;3.78;;;;;;;5.03;100.00;102346.69;5112815;28;20034;-77
2023/01/31 05:56:21;;;;;;;20.58;3.60;;;;;;;5.02;100.00;102337.94;5113901;28;20031;-77
2023/01/31 05:58:49;;;;;;;13.48;3.20;;;;;;;5.00;100.00;102331.88;5112453;28;20044;-77
2023/01/31 06:01:20;;;;;;;16.83;3.17;;;;;;;4.98;100.00;102332.88;5113356;28;20376;-77
2023/01/31 06:03:45;;;;;;;22.08;2.85;;;;;;;5.00;100.00;102337.16;5113514;28;20420;-77
2023/01/31 06:06:12;;;;;;;21.60;3.38;;;;;;;5.03;100.00;102328.22;5113635;28;20027;-77
2023/01/31 06:08:37;;;;;;;25.70;3.83;;;;;;;5.05;100.00;102339.59;5113550;28;20063;-78
2023/01/31 06:11:04;;;;;;;27.92;4.28;;;;;;;5.04;100.00;102330.81;5113302;28;20032;-79
2023/01/31 06:13:30;;;;;;;24.25;3.15;;;;;;;5.01;100.00;102332.72;5114034;28;20074;-79
2023/01/31 06:15:56;;;;;;;19.50;3.67;;;;;;;5.05;100.00;102329.03;5113714;28;20149;-78
2023/01/31 06:18:21;;;;;;;28.25;3.72;;;;;;;5.03;100.00;102325.59;5113703;28;20118;-80
2023/01/31 06:20:46;;;;;;;24.35;3.80;;;;;;;5.01;100.00;102328.31;5113559;28;20479;-77
2023/01/31 06:23:12;;;;;;;27.27;3.90;;;;;;;4.98;100.00;102319.69;5112316;28;20031;-81
2023/01/31 06:25:37;;;;;;;19.52;3.58;;;;;;;4.91;100.00;102314.69;5113622;28;20113;-81
2023/01/31 06:28:03;;;;;;;16.25;3.03;;;;;;;4.83;100.00;102308.00;5113674;28;20032;-80
2023/01/31 06:30:29;;;;;;;21.58;3.42;;;;;;;4.74;100.00;102322.44;5114358;28;20031;-82
2023/01/31 06:32:54;;;;;;;17.83;3.03;;;;;;;4.70;100.00;102310.31;5113577;28;20418;-80
2023/01/31 06:35:19;;;;;;;17.90;3.40;;;;;;;4.61;100.00;102308.91;5113603;28;20024;-79
2023/01/31 06:37:45;;;;;;;23.23;3.15;;;;;;;4.55;100.00;102307.41;5113898;28;20038;-80
2023/01/31 06:40:11;;;;;;;29.65;4.03;;;;;;;4.52;100.00;102290.84;5113607;28;20057;-80
2023/01/31 06:42:36;;;;;;;29.98;3.58;;;;;;;4.44;100.00;102306.97;5114039;28;20036;-76
2023/01/31 06:45:01;;;;;;;16.38;2.40;;;;;;;4.39;100.00;102291.34;5113754;28;20032;-80
2023/01/31 06:47:27;;;;;;;14.52;2.63;;;;;;;4.37;100.00;102292.34;5114564;28;20039;-83
2023/01/31 06:49:52;;;;;;;15.75;3.17;;;;;;;4.35;100.00;102288.91;5113203;28;20039;-79
2023/01/31 06:52:17;;;;;;;26.63;3.28;;;;;;;4.36;100.00;102288.84;5113312;28;20062;-80
2023/01/31 06:54:43;;;;;;;14.82;2.80;;;;;;;4.35;100.00;102288.91;5112870;28;20232;-79
2023/01/31 06:57:08;;;;;;;15.25;2.63;;;;;;;4.35;100.00;102275.75;5113184;28;20063;-75
2023/01/31 06:59:34;;;;;;;19.73;3.25;;;;;;;4.37;100.00;102268.63;5111959;28;20028;-80
2023/01/31 07:01:59;;;;;;;18.20;3.42;;;;;;;4.37;100.00;102260.72;5113151;28;20030;-81
2023/01/31 07:04:24;;;;;;;23.15;3.55;;;;;;;4.36;100.00;102259.88;5113407;28;20352;-80
2023/01/31 07:06:50;;;;;;;18.95;2.80;;;;;;;4.37;100.00;102251.03;5114861;28;20038;-81
2023/01/31 07:09:15;;;;;;;15.32;2.40;;;;;;;4.37;100.00;102255.44;5113938;28;20085;-79
2023/01/31 07:11:41;;;;;;;24.80;2.53;;;;;;;4.38;100.00;102246.63;5113839;28;20064;-81
2023/01/31 07:14:06;;;;;;;16.92;2.72;;;;;;;4.38;100.00;102244.00;5114925;28;20045;-80
2023/01/31 07:16:32;;;;;;;21.52;2.67;;;;;;;4.44;100.00;102246.34;5117799;28;20027;-78
2023/01/31 07:18:57;;;;;;;15.63;3.05;;;;;;;4.49;100.00;102251.44;5116222;28;20494;-79
2023/01/31 07:21:25;;;;;;;22.83;2.80;;;;;;;4.53;100.00;102234.56;5112250;28;20028;-79
2023/01/31 07:23:51;;;;;;;20.38;3.78;;;;;;;4.55;100.00;102248.53;5115030;28;20028;-79
2023/01/31 07:26:16;;;;;;;25.90;3.42;;;;;;;4.61;100.00;102256.16;5115401;28;20032;-78
2023/01/31 07:28:41;;;;;;;20.95;3.03;;;;;;;4.63;100.00;102258.75;5116822;28;20115;-78
2023/01/31 07:31:10;;;;;;;19.88;3.08;;;;;;;4.64;100.00;102245.50;5117828;28;20035;-78
2023/01/31 07:33:36;;;;;;;14.68;2.75;;;;;;;4.64;100.00;102245.50;5120335;28;20023;-77
2023/01/31 07:36:03;;;;;;;17.30;3.00;;;;;;;4.66;100.00;102248.06;5115801;28;20459;-79
2023/01/31 07:38:30;;;;;;;18.15;2.88;;;;;;;4.68;100.00;102238.31;5116393;28;20042;-79
2023/01/31 07:41:03;;;;;;;13.18;2.50;;;;;;;4.69;100.00;102245.31;5116344;28;20031;-79
2023/01/31 07:43:29;;;;;;;18.73;2.80;;;;;;;4.73;100.00;102242.47;5115296;28;20050;-80
2023/01/31 07:45:55;;;;;;;12.75;2.00;;;;;;;4.74;100.00;102217.81;5115854;28;20391;-78
2023/01/31 07:48:23;;;;;;;19.88;3.30;;;;;;;4.67;100.00;102211.13;5116450;28;20038;-81
2023/01/31 07:50:51;;;;;;;21.10;3.63;;;;;;;4.59;100.00;102215.84;5116233;28;20024;-79
2023/01/31 07:53:16;;;;;;;17.75;3.33;;;;;;;4.51;100.00;102218.81;5116329;28;20032;-81
2023/01/31 07:55:46;;;;;;;13.95;3.05;;;;;;;4.47;100.00;102219.88;5116093;28;20058;-80
2023/01/31 07:58:12;;;;;;;17.02;2.65;;;;;;;4.50;100.00;102213.63;5116173;28;20024;-81
2023/01/31 08:03:34;;;;;;;17.58;2.65;;;;;;;4.51;100.00;102215.31;5116705;28;20127;-81
2023/01/31 08:06:08;;;;;;;16.02;2.90;;;;;;;4.57;100.00;102213.28;5117978;28;20023;-79
2023/01/31 08:08:37;;;;;;;17.42;3.17;;;;;;;4.56;100.00;102218.63;5121127;28;20059;-80
2023/01/31 08:11:06;;;;;;;13.82;3.05;;;;;;;4.50;100.00;102218.88;5121578;28;20384;-78
2023/01/31 08:13:34;;;;;;;19.17;2.83;;;;;;;4.45;100.00;102216.47;5116355;28;20053;-78
2023/01/31 08:15:59;;;;;;;17.02;2.25;;;;;;;4.51;100.00;102215.31;5116194;28;20035;-79
2023/01/31 08:18:25;;;;;;;18.05;3.58;;;;;;;4.49;100.00;102207.47;5116490;28;20031;-78
2023/01/31 08:20:50;;;;;;;22.77;2.80;;;;;;;4.47;100.00;102206.69;5114739;28;20024;-78
2023/01/31 08:23:16;;;;;;;19.38;2.78;;;;;;;4.46;100.00;102197.06;5114581;28;20399;-77
2023/01/31 08:25:41;;;;;;;14.68;2.75;;;;;;;4.44;100.00;102198.91;5115777;28;20437;-78
2023/01/31 08:28:07;;;;;;;24.27;3.30;;;;;;;4.43;100.00;102191.91;5116228;28;20028;-77
2023/01/31 08:30:33;;;;;;;18.73;2.85;;;;;;;4.47;100.00;102188.25;5115574;28;20028;-78
2023/01/31 08:32:59;;;;;;;12.85;2.33;;;;;;;4.49;100.00;102188.16;5115877;28;20114;-77
2023/01/31 08:35:25;;;;;;;18.33;3.40;;;;;;;4.50;100.00;102182.84;5113867;28;20483;-77
2023/01/31 08:37:51;;;;;;;17.13;2.78;;;;;;;4.54;100.00;102192.31;5115820;28;20032;-77
2023/01/31 08:40:17;;;;;;;18.13;3.28;;;;;;;4.61;100.00;102189.41;5114154;28;20035;-78
2023/01/31 08:42:42;;;;;;;28.17;3.80;;;;;;;4.76;100.00;102180.81;5115302;28;20084;-85
2023/01/31 08:45:08;;;;;;;22.33;3.40;;;;;;;4.90;100.00;102175.78;5115847;28;20384;-81
2023/01/31 08:47:35;;;;;;;19.30;2.95;;;;;;;5.02;100.00;102173.53;5116320;28;20057;-80
2023/01/31 08:50:00;;;;;;;16.17;3.08;;;;;;;5.09;100.00;102177.56;5114977;28;20043;-81
2023/01/31 08:52:26;;;;;;;16.10;3.20;;;;;;;5.15;100.00;102176.44;5115986;28;20452;-80
2023/01/31 08:54:51;;;;;;;19.05;3.42;;;;;;;5.18;100.00;102187.72;5115179;28;20044;-79
2023/01/31 08:57:16;;;;;;;22.00;3.20;;;;;;;5.17;100.00;102193.94;5115401;28;20031;-80
2023/01/31 08:59:42;;;;;;;15.98;3.03;;;;;;;5.18;100.00;102203.56;5114806;28;20448;-81
2023/01/31 09:02:10;;;;;;;25.90;3.33;;;;;;;5.26;100.00;102204.03;5115680;28;20038;-81
2023/01/31 09:04:36;;;;;;;18.23;2.92;;;;;;;5.34;100.00;102208.13;5115249;28;20031;-80
2023/01/31 09:07:01;;;;;;;20.92;3.47;;;;;;;5.39;100.00;102191.16;5116524;28;20039;-84
2023/01/31 09:09:26;;;;;;;17.95;3.28;;;;;;;5.51;100.00;102192.34;5115509;28;20032;-79
2023/01/31 09:11:52;;;;;;;18.15;2.70;;;;;;;5.68;100.00;102188.88;5114766;28;20118;-80
2023/01/31 09:14:17;;;;;;;18.15;2.65;;;;;;;5.89;100.00;102179.06;5113355;28;20027;-78
2023/01/31 09:16:45;;;;;;;21.90;2.97;;;;;;;6.00;100.00;102168.84;5114407;28;20154;-80
2023/01/31 09:19:11;;;;;;;20.88;3.20;;;;;;;6.10;100.00;102165.75;5114452;28;20031;-80
2023/01/31 09:21:36;;;;;;;16.00;3.17;;;;;;;6.21;100.00;102154.63;5114753;28;20032;-80
2023/01/31 09:24:02;;;;;;;21.95;3.00;;;;;;;6.46;100.00;102156.84;5115106;28;20077;-80
2023/01/31 09:26:27;;;;;;;14.95;3.03;;;;;;;6.78;100.00;102151.66;5114325;28;20032;-80
2023/01/31 09:28:54;;;;;;;28.50;3.42;;;;;;;6.87;100.00;102151.16;5113141;28;20031;-81
2023/01/31 09:31:20;;;;;;;21.80;2.90;;;;;;;6.81;100.00;102148.84;5114422;28;20157;-78
2023/01/31 09:33:46;;;;;;;15.82;3.08;;;;;;;6.64;100.00;102149.75;5113995;28;20061;-78
2023/01/31 09:36:14;;;;;;;15.18;3.22;;;;;;;6.41;100.00;102143.88;5114455;28;20027;-81
2023/01/31 09:38:40;;;;;;;30.70;3.65;;;;;;;6.33;100.00;102133.72;5114332;28;20028;-81
2023/01/31 09:41:33;;;;;;;22.77;3.63;;;;;;;6.27;100.00;102141.97;5112708;28;20055;-80
2023/01/31 09:44:08;;;;;;;24.73;4.20;;;;;;;6.28;100.00;102134.88;5114356;28;20485;-80
2023/01/31 09:46:41;;;;;;;19.65;3.88;;;;;;;6.30;100.00;102149.72;5113851;28;20055;-81
2023/01/31 09:49:14;;;;;;;30.63;3.58;;;;;;;6.33;100.00;102149.56;5114238;28;20027;-81
2023/01/31 09:51:39;;;;;;;17.25;3.50;;;;;;;6.41;100.00;102143.03;5112713;28;20038;-79
2023/01/31 09:54:16;;;;;;;17.17;2.85;;;;;;;6.45;100.00;102155.13;5113974;28;20028;-80
2023/01/31 09:56:47;;;;;;;20.92;3.90;;;;;;;6.53;100.00;102150.31;5114050;28;20027;-80
2023/01/31 09:59:27;;;;;;;35.63;3.72;;;;;;;6.68;100.00;102148.66;5114442;28;20053;-80
2023/01/31 10:02:04;;;;;;;22.63;3.13;;;;;;;6.67;100.00;102150.44;5113430;28;20314;-79
2023/01/31 10:04:43;;;;;;;20.02;4.07;;;;;;;6.64;100.00;102155.03;5113907;28;20106;-79
2023/01/31 10:07:20;;;;;;;29.45;4.88;;;;;;;6.59;100.00;102171.16;5113937;28;20225;-79
2023/01/31 10:10:01;;;;;;;20.05;2.95;;;;;;;6.53;100.00;102171.47;5113774;28;20038;-78
2023/01/31 10:12:43;;;;;;;20.27;3.67;;;;;;;6.59;100.00;102165.00;5113435;28;20050;-79
2023/01/31 10:15:14;;;;;;;27.17;5.05;;;;;;;6.61;100.00;102171.91;5114196;28;20065;-79
2023/01/31 10:17:43;;;;;;;;;;;;;;;6.61;100.00;102176.34;5112467;28;20332;-80
2023/01/31 10:20:19;;;;;;;18.48;2.88;;;;;;;6.61;100.00;102181.63;5113177;28;20018;-78
2023/01/31 10:22:51;;;;;;;22.27;3.33;;;;;;;6.58;100.00;102173.88;5113364;28;20028;-78
2023/01/31 10:25:25;;;;;;;28.63;4.10;;;;;;;6.56;100.00;102171.31;5113767;28;20028;-78
2023/01/31 10:28:00;;;;;;;22.15;3.67;;;;;;;6.54;100.00;102210.22;5113905;28;20032;-77
2023/01/31 10:30:48;;;;;;;16.10;3.35;;;;;;;6.55;100.00;102164.31;5113666;28;20031;-77
2023/01/31 10:33:42;;;;;;;16.60;3.28;;;;;;;6.63;100.00;102166.56;5081462;28;20035;-78
2023/01/31 10:36:17;;;;;;;23.38;2.80;;;;;;;6.68;100.00;102162.72;5113096;28;20028;-79
2023/01/31 10:38:59;;;;;;;29.25;3.75;;;;;;;6.78;100.00;102163.09;5113220;28;20031;-80
2023/01/31 10:41:30;;;;;;;;;;;;;;;6.83;100.00;102157.56;5112513;28;20448;-79
2023/01/31 10:44:09;;;;;;;18.05;3.75;;;;;;;6.86;100.00;102157.38;5113790;28;20405;-77
2023/01/31 10:46:35;;;;;;;27.58;3.97;;;;;;;6.89;100.00;102162.50;5113488;28;20120;-80
2023/01/31 10:49:00;;;;;;;24.80;3.72;;;;;;;6.87;100.00;102156.47;5113356;28;20115;-78
2023/01/31 10:51:50;;;;;;;22.50;3.05;;;;;;;6.86;100.00;102160.03;5113272;28;20053;-78
2023/01/31 10:54:26;;;;;;;21.02;3.00;;;;;;;6.86;100.00;102175.91;5113394;28;20031;-79
2023/01/31 10:56:51;;;;;;;23.73;4.38;;;;;;;6.86;100.00;102173.25;5111841;28;20028;-80
2023/01/31 10:59:26;;;;;;;22.65;4.15;;;;;;;6.92;100.00;102177.38;5115947;28;20046;-77
2023/01/31 11:01:51;;;;;;;21.55;3.63;;;;;;;7.02;100.00;102173.31;5117523;28;20118;-79
2023/01/31 11:04:36;;;;;;;27.75;4.15;;;;;;;7.00;100.00;102175.16;5116909;28;20059;-79
2023/01/31 11:07:02;;;;;;;20.27;3.15;;;;;;;7.02;100.00;102179.44;5117168;28;20140;-79
2023/01/31 11:09:32;;;;;;;24.20;3.45;;;;;;;7.02;100.00;102179.44;5117317;28;20529;-79
2023/01/31 11:12:00;;;;;;;17.02;3.60;;;;;;;6.96;100.00;102174.47;5117195;28;20024;-79
2023/01/31 11:14:28;;;;;;;20.38;3.78;;;;;;;6.94;100.00;102180.78;5116823;28;20053;-79
2023/01/31 11:17:19;;;;;;;28.98;3.85;;;;;;;6.94;100.00;102186.06;5116658;28;20032;-82
2023/01/31 11:19:44;;;;;;;18.43;3.40;;;;;;;6.89;100.00;102181.03;5116098;28;20027;-77
2023/01/31 11:22:25;;;;;;;15.25;3.17;;;;;;;6.87;100.00;102188.22;5116975;28;20273;-79
2023/01/31 11:24:51;;;;;;;22.00;4.15;;;;;;;6.79;100.00;102180.69;5117031;28;20043;-78
2023/01/31 11:27:32;;;;;;;24.48;3.53;;;;;;;6.80;100.00;102184.19;5115733;28;20043;-79
2023/01/31 11:29:58;;;;;;;21.58;3.22;;;;;;;6.75;100.00;102187.06;5116508;28;20482;-79
2023/01/31 11:32:28;;;;;;;23.75;3.42;;;;;;;6.77;100.00;102176.41;5116842;28;20036;-79
2023/01/31 11:34:59;;;;;;;27.95;3.58;;;;;;;6.74;100.00;102164.19;5116882;28;20032;-80